createdAt,value
2023-03-30T00:02:23.221Z,30.92
2023-03-30T00:04:52.892Z,26.05
2023-03-30T00:07:21.334Z,30.40
2023-03-30T00:09:49.830Z,27.27
2023-03-30T00:12:20.517Z,26.83
2023-03-30T00:14:51.470Z,26.73
2023-03-30T00:17:19.649Z,26.15
2023-03-30T00:19:48.475Z,28.13
2023-03-30T00:22:16.831Z,28.10
2023-03-30T00:24:44.919Z,27.33
2023-03-30T00:27:13.069Z,26.52
2023-03-30T00:29:41.365Z,24.60
2023-03-30T00:32:10.970Z,22.75
2023-03-30T00:34:39.309Z,26.58
2023-03-30T00:37:07.821Z,23.10
2023-03-30T00:39:35.996Z,25.73
2023-03-30T00:42:04.439Z,23.77
2023-03-30T00:45:08.768Z,26.55
2023-03-30T00:47:42.552Z,26.15
2023-03-30T00:50:12.315Z,23.80
2023-03-30T00:52:43.278Z,24.75
2023-03-30T00:55:13.899Z,21.50
2023-03-30T00:57:44.446Z,25.05
2023-03-30T01:00:14.748Z,21.52
2023-03-30T01:02:48.691Z,21.50
2023-03-30T01:05:18.147Z,23.52
2023-03-30T01:07:49.832Z,27.10
2023-03-30T01:10:19.406Z,23.40
2023-03-30T01:12:48.023Z,23.92
2023-03-30T01:15:17.737Z,24.65
2023-03-30T01:18:04.737Z,23.27
2023-03-30T01:21:15.905Z,20.50
2023-03-30T01:24:29.092Z,21.23
2023-03-30T01:26:59.774Z,29.80
2023-03-30T01:29:53.465Z,25.20
2023-03-30T01:32:51.788Z,25.52
2023-03-30T01:35:53.027Z,20.20
2023-03-30T01:38:42.679Z,26.20
2023-03-30T01:41:20.024Z,20.67
2023-03-30T01:43:53.811Z,24.08
2023-03-30T01:46:31.022Z,20.65
2023-03-30T01:49:08.620Z,28.02
2023-03-30T01:54:34.129Z,18.13
2023-03-30T01:57:08.599Z,23.02
2023-03-30T01:59:42.756Z,20.25
2023-03-30T02:02:14.770Z,17.95
2023-03-30T02:04:45.773Z,23.58
2023-03-30T02:07:18.401Z,22.02
2023-03-30T02:09:50.414Z,24.95
2023-03-30T02:12:22.050Z,20.38
2023-03-30T02:14:51.121Z,20.95
2023-03-30T02:17:24.581Z,18.67
2023-03-30T02:19:56.962Z,19.17
2023-03-30T02:22:27.356Z,20.17
2023-03-30T02:24:58.145Z,20.63
2023-03-30T02:27:28.627Z,17.77
2023-03-30T02:29:57.053Z,19.02
2023-03-30T02:32:28.769Z,20.95
2023-03-30T02:35:18.843Z,18.25
2023-03-30T02:38:17.137Z,14.43
2023-03-30T02:40:57.092Z,16.58
2023-03-30T02:43:35.308Z,16.77
2023-03-30T02:46:40.309Z,16.27
2023-03-30T02:49:17.182Z,16.17
2023-03-30T02:51:55.906Z,16.83
2023-03-30T02:54:39.841Z,15.75
2023-03-30T02:57:29.927Z,16.45
2023-03-30T03:00:23.243Z,17.58
2023-03-30T03:02:57.403Z,14.75
2023-03-30T03:05:32.482Z,17.48
2023-03-30T03:08:15.772Z,15.40
2023-03-30T03:10:45.445Z,15.48
2023-03-30T03:13:16.236Z,14.27
2023-03-30T03:15:49.448Z,14.45
2023-03-30T03:18:18.553Z,13.20
2023-03-30T03:20:46.812Z,12.77
2023-03-30T03:23:15.288Z,15.68
2023-03-30T03:25:48.970Z,14.00
2023-03-30T03:28:19.810Z,16.63
2023-03-30T03:30:52.492Z,15.63
2023-03-30T03:33:24.350Z,13.73
2023-03-30T03:36:15.398Z,15.68
2023-03-30T03:38:49.242Z,12.65
2023-03-30T03:41:18.121Z,12.73
2023-03-30T03:43:46.926Z,18.70
2023-03-30T03:46:19.086Z,17.48
2023-03-30T03:48:47.366Z,16.40
2023-03-30T03:51:15.583Z,20.20
2023-03-30T03:53:44.418Z,16.77
2023-03-30T03:56:14.801Z,15.48
2023-03-30T03:58:43.248Z,16.27
2023-03-30T04:01:14.607Z,19.40
2023-03-30T04:03:44.466Z,16.00
2023-03-30T04:06:12.963Z,16.75
2023-03-30T04:08:41.170Z,19.42
2023-03-30T04:11:20.324Z,19.35
2023-03-30T04:14:11.814Z,11.13
2023-03-30T04:16:51.370Z,14.45
2023-03-30T04:19:36.278Z,14.82
2023-03-30T04:22:42.920Z,15.20
2023-03-30T04:25:30.073Z,17.63
2023-03-30T04:27:58.310Z,15.88
2023-03-30T04:30:52.699Z,13.65
2023-03-30T04:33:56.493Z,14.07
2023-03-30T04:36:44.849Z,13.00
2023-03-30T04:39:36.226Z,17.40
2023-03-30T04:42:38.014Z,17.42
2023-03-30T04:45:42.229Z,14.80
2023-03-30T04:48:34.146Z,20.23
2023-03-30T04:51:20.740Z,14.52
2023-03-30T04:53:59.701Z,12.60
2023-03-30T04:56:46.377Z,16.35
2023-03-30T04:59:41.829Z,17.92
2023-03-30T05:02:28.809Z,16.30
2023-03-30T05:05:29.708Z,15.77
2023-03-30T05:08:10.162Z,11.55
2023-03-30T05:11:01.218Z,11.73
2023-03-30T05:13:47.299Z,9.05
2023-03-30T05:16:42.276Z,10.45
2023-03-30T05:19:36.804Z,11.07
2023-03-30T05:22:20.068Z,9.05
2023-03-30T05:25:27.174Z,14.52
2023-03-30T05:28:09.539Z,10.05
2023-03-30T05:31:11.044Z,9.77
2023-03-30T05:33:49.393Z,10.20
2023-03-30T05:36:32.411Z,9.15
2023-03-30T05:39:24.803Z,8.57
2023-03-30T05:42:07.366Z,9.15
2023-03-30T05:44:57.760Z,8.35
2023-03-30T05:47:44.633Z,9.13
2023-03-30T05:50:46.670Z,10.73
2023-03-30T05:53:23.882Z,7.95
2023-03-30T05:56:21.881Z,8.27
2023-03-30T05:58:57.888Z,8.70
2023-03-30T06:01:44.954Z,9.80
2023-03-30T06:04:13.765Z,6.53
2023-03-30T06:06:45.280Z,11.38
2023-03-30T06:09:13.552Z,7.20
2023-03-30T06:11:41.687Z,9.32
2023-03-30T06:14:19.621Z,6.05
2023-03-30T06:17:12.094Z,9.15
2023-03-30T06:19:41.452Z,7.05
2023-03-30T06:22:10.369Z,8.25
2023-03-30T06:25:02.017Z,7.75
2023-03-30T06:27:32.193Z,8.52
2023-03-30T06:36:01.452Z,6.47
2023-03-30T06:38:30.367Z,5.47
2023-03-30T06:40:58.459Z,6.65
2023-03-30T06:43:29.488Z,8.23
2023-03-30T06:46:17.568Z,7.00
2023-03-30T06:48:48.485Z,8.82
2023-03-30T06:51:36.667Z,5.90
2023-03-30T06:54:07.339Z,5.15
2023-03-30T06:56:39.193Z,11.07
2023-03-30T06:59:14.334Z,8.60
2023-03-30T07:02:03.264Z,11.15
2023-03-30T07:04:50.417Z,7.97
2023-03-30T07:07:28.137Z,8.00
2023-03-30T07:09:56.744Z,11.80
2023-03-30T07:12:25.147Z,10.27
2023-03-30T07:14:54.342Z,4.53
2023-03-30T07:17:26.483Z,5.50
2023-03-30T07:19:55.686Z,11.05
2023-03-30T07:22:23.824Z,4.28
2023-03-30T07:24:54.561Z,12.25
2023-03-30T07:27:25.377Z,5.53
2023-03-30T07:30:07.292Z,5.68
2023-03-30T07:32:44.146Z,5.68
2023-03-30T07:35:13.431Z,9.57
2023-03-30T07:37:43.009Z,4.20
2023-03-30T07:40:13.121Z,5.32
2023-03-30T07:42:43.420Z,5.28
2023-03-30T07:45:14.940Z,6.95
2023-03-30T07:47:46.901Z,6.65
2023-03-30T07:50:16.986Z,5.45
2023-03-30T07:52:45.786Z,10.20
2023-03-30T07:55:15.705Z,7.28
2023-03-30T07:57:51.109Z,8.65
2023-03-30T08:00:21.689Z,5.57
2023-03-30T08:03:09.912Z,10.68
2023-03-30T08:05:38.711Z,5.57
2023-03-30T08:08:19.396Z,7.13
2023-03-30T08:10:49.207Z,5.22
2023-03-30T08:13:18.294Z,4.13
2023-03-30T08:15:48.213Z,9.05
2023-03-30T08:18:41.462Z,5.68
2023-03-30T08:24:09.957Z,9.73
2023-03-30T08:26:39.604Z,8.93
2023-03-30T08:29:08.315Z,7.43
2023-03-30T08:31:37.876Z,6.75
2023-03-30T08:34:07.143Z,5.70
2023-03-30T08:36:35.231Z,5.40
2023-03-30T08:39:04.749Z,7.00
2023-03-30T08:45:05.471Z,6.47
2023-03-30T08:47:38.175Z,5.82
2023-03-30T08:50:10.295Z,5.38
2023-03-30T08:52:38.924Z,4.20
2023-03-30T08:55:07.900Z,6.43
2023-03-30T08:57:48.692Z,6.18
2023-03-30T09:00:27.483Z,6.82
2023-03-30T09:03:03.921Z,6.15
2023-03-30T09:05:34.963Z,6.85
2023-03-30T09:08:09.025Z,8.77
2023-03-30T09:10:42.625Z,5.47
2023-03-30T09:13:16.717Z,8.65
2023-03-30T09:15:50.110Z,5.57
2023-03-30T09:18:23.987Z,8.17
2023-03-30T09:20:53.243Z,6.75
2023-03-30T09:23:21.501Z,6.20
2023-03-30T09:25:55.504Z,5.90
2023-03-30T09:28:33.845Z,7.20
2023-03-30T09:31:08.843Z,8.50
2023-03-30T09:33:45.211Z,5.55
2023-03-30T09:36:17.429Z,6.15
2023-03-30T09:38:46.369Z,4.47
2023-03-30T09:41:33.376Z,6.57
2023-03-30T09:44:03.484Z,5.75
2023-03-30T09:46:40.550Z,4.25
2023-03-30T09:49:16.596Z,4.03
2023-03-30T09:51:57.171Z,6.28
2023-03-30T09:54:26.156Z,7.90
2023-03-30T09:56:56.984Z,11.43
2023-03-30T09:59:33.945Z,6.80
2023-03-30T10:02:16.570Z,4.35
2023-03-30T10:05:02.269Z,6.43
2023-03-30T10:07:33.916Z,6.68
2023-03-30T10:10:13.093Z,6.15
2023-03-30T10:12:41.345Z,6.78
2023-03-30T10:15:17.854Z,7.95
2023-03-30T10:17:48.568Z,8.45
2023-03-30T10:20:29.651Z,6.25
2023-03-30T10:23:03.086Z,7.50
2023-03-30T10:25:34.843Z,6.10
2023-03-30T10:28:04.812Z,5.95
2023-03-30T10:30:35.316Z,6.20
2023-03-30T10:33:04.062Z,6.85
2023-03-30T10:35:36.777Z,4.72
2023-03-30T10:38:07.100Z,4.22
2023-03-30T10:40:37.850Z,8.32
2023-03-30T10:43:11.899Z,7.97
2023-03-30T10:45:45.635Z,7.25
2023-03-30T10:48:27.309Z,4.43
2023-03-30T10:51:02.394Z,7.93
2023-03-30T10:53:42.993Z,5.68
2023-03-30T10:56:22.514Z,6.68
2023-03-30T10:59:33.503Z,8.70
2023-03-30T11:02:17.286Z,6.30
2023-03-30T11:04:50.181Z,13.10
2023-03-30T11:07:29.186Z,8.07
2023-03-30T11:10:03.959Z,8.45
2023-03-30T11:12:37.469Z,8.60
2023-03-30T11:15:10.904Z,7.88
2023-03-30T11:17:48.140Z,6.55
2023-03-30T11:20:27.303Z,4.53
2023-03-30T11:23:10.954Z,6.38
2023-03-30T11:25:47.872Z,11.13
2023-03-30T11:28:22.899Z,7.47
2023-03-30T11:30:55.274Z,6.45
2023-03-30T11:33:30.528Z,6.60
2023-03-30T11:36:05.325Z,6.80
2023-03-30T11:38:41.977Z,6.93
2023-03-30T11:41:15.566Z,9.35
2023-03-30T11:43:44.559Z,7.05
2023-03-30T11:46:20.288Z,9.10
2023-03-30T11:49:05.870Z,13.25
2023-03-30T11:51:49.947Z,8.20
2023-03-30T11:55:03.649Z,9.68
2023-03-30T11:57:39.356Z,6.95
2023-03-30T12:00:31.235Z,8.38
2023-03-30T12:03:14.347Z,12.00
2023-03-30T12:05:46.259Z,9.75
2023-03-30T12:08:28.195Z,14.93
2023-03-30T12:11:07.461Z,9.90
2023-03-30T12:13:48.441Z,16.58
2023-03-30T12:16:25.659Z,14.77
2023-03-30T12:19:08.734Z,11.70
2023-03-30T12:21:42.404Z,11.82
2023-03-30T12:24:18.139Z,10.18
2023-03-30T12:26:58.155Z,6.60
2023-03-30T12:30:01.828Z,14.63
2023-03-30T12:32:32.172Z,9.60
2023-03-30T12:35:00.266Z,11.10
2023-03-30T12:37:33.698Z,11.52
2023-03-30T12:40:09.028Z,13.18
2023-03-30T12:42:46.289Z,10.25
2023-03-30T12:45:32.772Z,13.15
2023-03-30T12:48:26.445Z,11.48
2023-03-30T12:51:08.493Z,9.25
2023-03-30T12:54:04.631Z,9.20
2023-03-30T12:56:39.056Z,9.98
2023-03-30T12:59:33.393Z,7.53
2023-03-30T13:02:09.016Z,9.20
2023-03-30T13:04:40.466Z,6.45
2023-03-30T13:07:15.763Z,5.85
2023-03-30T13:09:56.464Z,7.10
2023-03-30T13:12:40.406Z,6.45
2023-03-30T13:15:43.473Z,7.55
2023-03-30T13:18:41.035Z,5.93
2023-03-30T13:21:26.202Z,8.68
2023-03-30T13:24:05.237Z,7.05
2023-03-30T13:26:45.307Z,5.93
2023-03-30T13:29:17.072Z,11.55
2023-03-30T13:32:00.631Z,8.68
2023-03-30T13:35:03.196Z,5.87
2023-03-30T13:37:59.434Z,6.90
2023-03-30T13:40:40.263Z,7.45
2023-03-30T13:43:24.564Z,8.10
2023-03-30T13:48:48.719Z,8.95
2023-03-30T13:51:21.606Z,9.77
2023-03-30T13:53:53.029Z,10.20
2023-03-30T13:56:22.282Z,9.50
2023-03-30T13:58:57.628Z,9.82
2023-03-30T14:01:26.268Z,9.15
2023-03-30T14:03:57.013Z,11.32
2023-03-30T14:06:28.780Z,11.15
2023-03-30T14:09:10.228Z,7.53
2023-03-30T14:11:44.657Z,8.27
2023-03-30T14:14:19.076Z,7.05
2023-03-30T14:16:47.951Z,6.07
2023-03-30T14:19:24.323Z,7.50
2023-03-30T14:21:57.282Z,11.23
2023-03-30T14:24:30.689Z,11.10
2023-03-30T14:27:08.009Z,12.23
2023-03-30T14:29:45.336Z,16.30
2023-03-30T14:32:16.119Z,11.35
2023-03-30T14:34:47.955Z,10.68
2023-03-30T14:37:21.035Z,12.32
2023-03-30T14:39:53.201Z,9.90
2023-03-30T14:42:25.368Z,9.63
2023-03-30T14:44:56.545Z,8.45
2023-03-30T14:47:27.317Z,10.65
2023-03-30T14:49:58.769Z,8.82
2023-03-30T14:52:32.529Z,9.50
2023-03-30T14:55:06.587Z,10.02
2023-03-30T14:57:39.007Z,9.32
2023-03-30T15:00:20.367Z,7.13
2023-03-30T15:02:52.294Z,9.52
2023-03-30T15:05:23.406Z,15.73
2023-03-30T15:07:54.394Z,17.05
2023-03-30T15:10:25.120Z,17.25
2023-03-30T15:12:57.616Z,11.13
2023-03-30T15:15:30.123Z,16.30
2023-03-30T15:17:58.936Z,18.88
2023-03-30T15:20:29.648Z,18.55
2023-03-30T15:23:00.972Z,17.65
2023-03-30T15:25:32.399Z,16.10
2023-03-30T15:28:06.818Z,17.25
2023-03-30T15:30:38.728Z,14.68
2023-03-30T15:33:08.435Z,21.83
2023-03-30T15:35:38.389Z,14.43
2023-03-30T15:38:17.216Z,16.40
2023-03-30T15:40:46.291Z,20.05
2023-03-30T15:43:20.111Z,14.88
2023-03-30T15:45:51.679Z,20.90
2023-03-30T15:48:24.060Z,15.23
2023-03-30T15:50:56.447Z,11.90
2023-03-30T15:53:36.519Z,12.70
2023-03-30T15:56:06.433Z,12.73
2023-03-30T15:58:35.281Z,7.75
2023-03-30T16:01:06.138Z,14.18
2023-03-30T16:03:40.579Z,13.90
2023-03-30T16:06:14.502Z,15.35
2023-03-30T16:08:45.213Z,13.25
2023-03-30T16:11:16.385Z,12.77
2023-03-30T16:13:46.069Z,13.40
2023-03-30T16:16:15.245Z,16.63
2023-03-30T16:18:43.746Z,12.57
2023-03-30T16:21:12.381Z,15.52
2023-03-30T16:23:40.687Z,13.95
2023-03-30T16:26:12.374Z,19.33
2023-03-30T16:28:42.721Z,16.42
2023-03-30T16:31:16.902Z,16.73
2023-03-30T16:33:45.601Z,17.17
2023-03-30T16:36:16.467Z,15.95
2023-03-30T16:38:45.229Z,16.20
2023-03-30T16:41:19.405Z,14.60
2023-03-30T16:46:17.329Z,15.52
2023-03-30T16:48:46.994Z,15.70
2023-03-30T16:51:16.509Z,15.52
2023-03-30T16:53:44.677Z,17.00
2023-03-30T16:56:18.225Z,17.23
2023-03-30T16:58:47.029Z,20.58
2023-03-30T17:01:18.549Z,18.25
2023-03-30T17:03:47.255Z,18.08
2023-03-30T17:06:16.941Z,21.42
2023-03-30T17:08:45.303Z,19.25
2023-03-30T17:11:14.957Z,23.92
2023-03-30T17:13:43.558Z,15.48
2023-03-30T17:16:13.845Z,20.75
2023-03-30T17:18:45.408Z,17.70
2023-03-30T17:21:16.414Z,14.88
2023-03-30T17:23:47.604Z,16.40
2023-03-30T17:26:17.670Z,16.98
2023-03-30T17:28:46.739Z,20.17
2023-03-30T17:31:18.631Z,18.48
2023-03-30T17:33:47.516Z,17.92
2023-03-30T17:36:18.701Z,23.33
2023-03-30T17:38:47.290Z,14.18
2023-03-30T17:41:19.310Z,17.08
2023-03-30T17:43:48.892Z,19.05
2023-03-30T17:46:18.856Z,18.45
2023-03-30T17:48:47.321Z,20.50
2023-03-30T17:51:15.649Z,12.48
2023-03-30T17:53:43.724Z,14.35
2023-03-30T17:56:13.889Z,21.70
2023-03-30T17:58:43.515Z,19.30
2023-03-30T18:01:12.796Z,20.85
2023-03-30T18:03:41.195Z,20.83
2023-03-30T18:06:12.697Z,21.55
2023-03-30T18:08:40.941Z,23.00
2023-03-30T18:11:09.329Z,21.25
2023-03-30T18:13:38.192Z,19.10
2023-03-30T18:16:08.051Z,18.85
2023-03-30T18:18:36.747Z,16.00
2023-03-30T18:21:06.918Z,17.13
2023-03-30T18:23:35.888Z,20.08
2023-03-30T18:26:09.316Z,19.63
2023-03-30T18:28:43.728Z,18.52
2023-03-30T18:31:13.997Z,14.07
2023-03-30T18:33:42.038Z,17.30
2023-03-30T18:36:12.964Z,20.42
2023-03-30T18:38:41.957Z,24.35
2023-03-30T18:41:11.872Z,18.75
2023-03-30T18:43:40.001Z,18.50
2023-03-30T18:46:10.454Z,17.13
2023-03-30T18:48:39.952Z,22.77
2023-03-30T18:51:08.332Z,17.67
2023-03-30T18:53:36.869Z,23.90
2023-03-30T18:56:05.125Z,22.08
2023-03-30T18:58:41.468Z,23.13
2023-03-30T19:01:13.130Z,23.08
2023-03-30T19:03:42.906Z,18.58
2023-03-30T19:06:13.912Z,20.25
2023-03-30T19:08:43.601Z,24.08
2023-03-30T19:11:17.334Z,20.48
2023-03-30T19:13:47.331Z,24.63
2023-03-30T19:16:18.463Z,16.98
2023-03-30T19:18:49.432Z,19.65
2023-03-30T19:21:19.033Z,26.35
2023-03-30T19:23:47.326Z,19.30
2023-03-30T19:26:15.792Z,25.08
2023-03-30T19:28:44.068Z,28.95
2023-03-30T19:31:15.743Z,21.35
2023-03-30T19:33:44.504Z,25.45
2023-03-30T19:36:14.042Z,27.30
2023-03-30T19:38:43.843Z,23.48
2023-03-30T19:41:12.112Z,23.80
2023-03-30T19:43:40.187Z,23.95
2023-03-30T19:46:08.655Z,22.85
2023-03-30T19:48:37.009Z,21.48
2023-03-30T19:51:07.180Z,23.35
2023-03-30T19:53:37.245Z,24.70
2023-03-30T19:56:10.218Z,23.13
2023-03-30T19:58:38.406Z,19.33
2023-03-30T20:01:08.066Z,23.10
2023-03-30T20:03:36.511Z,31.83
2023-03-30T20:06:04.991Z,24.92
2023-03-30T20:08:33.239Z,32.22
2023-03-30T20:11:07.935Z,29.58
2023-03-30T20:13:37.143Z,25.52
2023-03-30T20:16:06.020Z,32.75
2023-03-30T20:18:35.707Z,31.05
2023-03-30T20:21:04.655Z,24.15
2023-03-30T20:23:33.030Z,28.35
2023-03-30T20:26:05.607Z,32.08
2023-03-30T20:28:33.887Z,33.75
2023-03-30T20:31:02.081Z,26.70
2023-03-30T20:33:33.327Z,27.15
2023-03-30T20:36:01.546Z,32.50
2023-03-30T20:38:29.714Z,31.70
2023-03-30T20:40:59.249Z,31.15
2023-03-30T20:43:28.818Z,34.47
2023-03-30T20:46:02.799Z,34.67
2023-03-30T20:48:33.370Z,39.28
2023-03-30T20:51:03.653Z,26.80
2023-03-30T20:53:33.830Z,22.85
2023-03-30T20:56:02.951Z,37.17
2023-03-30T20:58:32.750Z,35.72
2023-03-30T21:01:01.606Z,25.73
2023-03-30T21:03:30.189Z,34.00
2023-03-30T21:06:02.815Z,40.25
2023-03-30T21:08:32.391Z,44.08
2023-03-30T21:11:01.701Z,29.75
2023-03-30T21:13:30.281Z,28.25
2023-03-30T21:16:00.601Z,29.92
2023-03-30T21:18:29.513Z,35.13
2023-03-30T21:20:58.332Z,46.03
2023-03-30T21:23:26.808Z,39.97
2023-03-30T21:25:57.836Z,38.47
2023-03-30T21:28:28.365Z,33.30
2023-03-30T21:30:57.756Z,40.63
2023-03-30T21:33:29.185Z,31.02
2023-03-30T21:35:59.297Z,31.30
2023-03-30T21:38:29.513Z,29.45
2023-03-30T21:40:59.893Z,31.27
2023-03-30T21:43:29.470Z,27.50
2023-03-30T21:45:59.918Z,25.90
2023-03-30T21:48:31.415Z,21.83
2023-03-30T21:51:00.867Z,25.00
2023-03-30T21:53:30.207Z,22.95
2023-03-30T21:55:58.738Z,21.67
2023-03-30T21:58:27.754Z,23.77
2023-03-30T22:01:08.938Z,26.05
2023-03-30T22:03:41.364Z,25.17
2023-03-30T22:06:14.056Z,20.75
2023-03-30T22:08:42.697Z,27.35
2023-03-30T22:11:13.800Z,24.92
2023-03-30T22:13:42.205Z,23.27
2023-03-30T22:16:13.614Z,18.95
2023-03-30T22:18:44.272Z,27.15
2023-03-30T22:21:15.522Z,23.35
2023-03-30T22:23:43.654Z,24.48
2023-03-30T22:26:12.481Z,24.88
2023-03-30T22:28:40.801Z,22.13
2023-03-30T22:31:09.386Z,21.83
2023-03-30T22:33:37.525Z,19.38
2023-03-30T22:36:17.003Z,16.17
2023-03-30T22:38:45.487Z,19.30
2023-03-30T22:41:13.758Z,17.92
2023-03-30T22:43:42.135Z,17.63
2023-03-30T22:46:11.062Z,18.48
2023-03-30T22:48:45.184Z,17.92
2023-03-30T22:51:15.141Z,23.23
2023-03-30T22:53:43.190Z,21.08
2023-03-30T22:56:11.888Z,18.67
2023-03-30T22:58:39.926Z,15.80
2023-03-30T23:01:10.362Z,19.73
2023-03-30T23:03:39.048Z,19.42
2023-03-30T23:06:08.161Z,20.80
2023-03-30T23:08:39.025Z,18.92
2023-03-30T23:11:08.347Z,21.70
2023-03-30T23:13:38.187Z,17.48
2023-03-30T23:16:08.450Z,20.05
2023-03-30T23:18:37.152Z,19.40
2023-03-30T23:21:06.774Z,17.95
2023-03-30T23:23:37.136Z,18.92
2023-03-30T23:26:08.386Z,17.20
2023-03-30T23:28:38.911Z,21.38
2023-03-30T23:31:11.834Z,16.05
2023-03-30T23:33:40.506Z,18.58
2023-03-30T23:36:10.113Z,21.73
2023-03-30T23:38:40.124Z,20.35
2023-03-30T23:41:08.189Z,21.48
2023-03-30T23:43:36.575Z,15.90
2023-03-30T23:46:05.306Z,21.27
2023-03-30T23:48:34.004Z,19.63
2023-03-30T23:51:02.438Z,16.67
2023-03-30T23:53:30.834Z,15.95
2023-03-30T23:56:05.970Z,16.65
2023-03-30T23:58:34.304Z,20.63
